createdAt,value
2019-03-20T00:00:17.489Z,102711.53
2019-03-20T00:02:49.657Z,102712.35
2019-03-20T00:05:19.915Z,102708.76
2019-03-20T00:07:50.015Z,102709.61
2019-03-20T00:10:20.298Z,102701.59
2019-03-20T00:12:50.480Z,102703.27
2019-03-20T00:15:20.661Z,102693.13
2019-03-20T00:17:52.387Z,102690.39
2019-03-20T00:20:22.699Z,102687.16
2019-03-20T00:22:52.811Z,102685.36
2019-03-20T00:25:23.012Z,102686.21
2019-03-20T00:27:53.757Z,102683.03
2019-03-20T00:30:24.234Z,102679.44
2019-03-20T00:32:54.428Z,102676.77
2019-03-20T00:35:24.641Z,102679.80
2019-03-20T00:37:54.824Z,102675.33
2019-03-20T00:40:24.937Z,102676.96
2019-03-20T00:42:56.223Z,102676.84
2019-03-20T00:45:26.569Z,102680.70
2019-03-20T00:47:56.729Z,102671.48
2019-03-20T00:50:27.114Z,102676.70
2019-03-20T00:52:58.311Z,102675.27
2019-03-20T00:55:28.493Z,102673.90
2019-03-20T00:57:58.685Z,102675.05
2019-03-20T01:00:28.915Z,102673.67
2019-03-20T01:02:59.439Z,102679.09
2019-03-20T01:05:29.563Z,102675.53
2019-03-20T01:07:59.687Z,102675.95
2019-03-20T01:10:31.133Z,102679.78
2019-03-20T01:13:01.251Z,102679.33
2019-03-20T01:15:31.839Z,102676.09
2019-03-20T01:18:02.192Z,102672.98
2019-03-20T01:20:32.902Z,102674.48
2019-03-20T01:23:03.027Z,102675.92
2019-03-20T01:25:35.184Z,102670.30
2019-03-20T01:28:09.111Z,102671.55
2019-03-20T01:30:39.598Z,102672.36
2019-03-20T01:33:11.575Z,102667.95
2019-03-20T01:35:42.113Z,102660.85
2019-03-20T01:38:12.234Z,102655.79
2019-03-20T01:40:44.935Z,102661.55
2019-03-20T01:43:15.045Z,102665.56
2019-03-20T01:45:45.165Z,102663.89
2019-03-20T01:48:17.462Z,102664.78
2019-03-20T01:50:47.557Z,102664.39
2019-03-20T01:53:17.687Z,102664.45
2019-03-20T01:55:47.785Z,102664.45
2019-03-20T01:58:18.068Z,102665.40
2019-03-20T02:00:48.413Z,102664.58
2019-03-20T02:03:18.743Z,102669.81
2019-03-20T02:05:51.939Z,102674.84
2019-03-20T02:08:22.099Z,102674.78
2019-03-20T02:10:52.764Z,102673.73
2019-03-20T02:13:22.947Z,102670.56
2019-03-20T02:15:53.068Z,102671.67
2019-03-20T02:18:24.682Z,102677.78
2019-03-20T02:20:55.068Z,102668.92
2019-03-20T02:23:25.438Z,102674.97
2019-03-20T02:25:55.560Z,102671.38
2019-03-20T02:28:26.923Z,102677.02
2019-03-20T02:30:58.829Z,102674.73
2019-03-20T02:33:30.003Z,102667.58
2019-03-20T02:36:00.156Z,102666.76
2019-03-20T02:38:32.399Z,102673.16
2019-03-20T02:41:03.405Z,102672.80
2019-03-20T02:43:33.550Z,102672.34
2019-03-20T02:46:03.647Z,102675.84
2019-03-20T02:48:33.838Z,102683.25
2019-03-20T02:51:04.028Z,102681.42
2019-03-20T02:53:34.246Z,102680.51
2019-03-20T02:56:04.383Z,102686.66
2019-03-20T02:58:34.478Z,102687.53
2019-03-20T03:01:04.677Z,102683.69
2019-03-20T03:03:34.982Z,102682.31
2019-03-20T03:06:07.049Z,102680.64
2019-03-20T03:08:37.157Z,102682.80
2019-03-20T03:11:09.048Z,102679.27
2019-03-20T03:13:40.792Z,102672.73
2019-03-20T03:16:10.966Z,102665.31
2019-03-20T03:18:42.686Z,102670.41
2019-03-20T03:21:12.896Z,102675.14
2019-03-20T03:23:48.714Z,102673.48
2019-03-20T03:26:21.993Z,102667.93
2019-03-20T03:28:53.162Z,102656.84
2019-03-20T03:31:26.433Z,102655.19
2019-03-20T03:33:56.590Z,102664.83
2019-03-20T03:36:26.661Z,102666.12
2019-03-20T03:38:56.829Z,102663.73
2019-03-20T03:41:26.953Z,102663.87
2019-03-20T03:43:57.128Z,102665.64
2019-03-20T03:46:27.226Z,102663.87
2019-03-20T03:48:57.434Z,102660.91
2019-03-20T03:51:27.609Z,102662.56
2019-03-20T03:53:57.746Z,102665.11
2019-03-20T03:56:29.852Z,102671.91
2019-03-20T03:58:59.659Z,102670.27
2019-03-20T04:01:31.500Z,102675.08
2019-03-20T04:04:03.965Z,102675.08
2019-03-20T04:06:35.829Z,102681.12
2019-03-20T04:09:08.000Z,102670.73
2019-03-20T04:11:38.113Z,102677.27
2019-03-20T04:14:11.213Z,102674.20
2019-03-20T04:16:41.791Z,102673.77
2019-03-20T04:19:13.076Z,102671.91
2019-03-20T04:21:43.691Z,102675.50
2019-03-20T04:24:18.389Z,102675.95
2019-03-20T04:26:52.194Z,102678.11
2019-03-20T04:29:24.963Z,102684.65
2019-03-20T04:31:56.056Z,102678.80
2019-03-20T04:34:28.235Z,102676.64
2019-03-20T04:36:58.397Z,102677.13
2019-03-20T04:39:29.461Z,102684.97
2019-03-20T04:41:59.551Z,102684.16
2019-03-20T04:44:30.582Z,102685.39
2019-03-20T04:47:05.360Z,102690.13
2019-03-20T04:49:38.079Z,102688.75
2019-03-20T04:52:09.270Z,102698.04
2019-03-20T04:54:40.479Z,102689.25
2019-03-20T04:57:10.663Z,102693.17
2019-03-20T04:59:41.275Z,102689.14
2019-03-20T05:02:13.133Z,102692.12
2019-03-20T05:04:45.945Z,102687.63
2019-03-20T05:07:18.901Z,102696.45
2019-03-20T05:09:49.153Z,102702.50
2019-03-20T05:12:19.563Z,102694.66
2019-03-20T05:14:54.614Z,102701.69
2019-03-20T05:17:43.803Z,102703.38
2019-03-20T05:20:18.723Z,102705.50
2019-03-20T05:22:51.623Z,102710.83
2019-03-20T05:25:21.803Z,102709.52
2019-03-20T05:27:51.893Z,102714.47
2019-03-20T05:30:22.103Z,102722.87
2019-03-20T05:33:02.816Z,102735.13
2019-03-20T05:35:34.078Z,102733.46
2019-03-20T05:38:04.263Z,102737.06
2019-03-20T05:40:34.446Z,102730.03
2019-03-20T05:43:04.543Z,102728.73
2019-03-20T05:45:34.699Z,102733.59
2019-03-20T05:48:05.181Z,102732.30
2019-03-20T05:50:38.155Z,102730.66
2019-03-20T05:53:08.303Z,102731.72
2019-03-20T05:55:38.439Z,102734.05
2019-03-20T05:58:08.551Z,102737.78
2019-03-20T06:00:38.851Z,102734.48
2019-03-20T06:03:09.105Z,102738.29
2019-03-20T06:05:40.261Z,102729.70
2019-03-20T06:08:13.067Z,102740.42
2019-03-20T06:10:43.279Z,102745.11
2019-03-20T06:13:15.779Z,102744.91
2019-03-20T06:15:48.106Z,102743.35
2019-03-20T06:18:18.373Z,102746.16
2019-03-20T06:20:48.573Z,102741.23
2019-03-20T06:23:18.791Z,102741.00
2019-03-20T06:25:51.406Z,102747.34
2019-03-20T06:28:22.121Z,102747.77
2019-03-20T06:30:55.199Z,102749.33
2019-03-20T06:33:25.444Z,102749.19
2019-03-20T06:35:55.710Z,102753.80
2019-03-20T06:38:26.070Z,102757.19
2019-03-20T06:40:56.313Z,102759.73
2019-03-20T06:43:27.820Z,102761.71
2019-03-20T06:46:00.824Z,102764.19
2019-03-20T06:48:32.824Z,102763.13
2019-03-20T06:51:03.125Z,102766.08
2019-03-20T06:53:36.259Z,102761.97
2019-03-20T06:56:06.504Z,102753.95
2019-03-20T06:58:36.861Z,102761.17
2019-03-20T07:01:15.633Z,102752.76
2019-03-20T07:04:13.444Z,102760.16
2019-03-20T07:07:22.811Z,102758.56
2019-03-20T07:10:16.109Z,102761.68
2019-03-20T07:12:47.402Z,102763.77
2019-03-20T07:15:17.574Z,102758.41
2019-03-20T07:17:47.949Z,102752.99
2019-03-20T07:20:18.125Z,102756.75
2019-03-20T07:22:48.632Z,102755.81
2019-03-20T07:25:20.874Z,102759.53
2019-03-20T07:27:51.302Z,102758.09
2019-03-20T07:30:21.578Z,102758.34
2019-03-20T07:32:53.384Z,102757.98
2019-03-20T07:35:24.066Z,102766.11
2019-03-20T07:37:56.233Z,102767.67
2019-03-20T07:40:29.046Z,102770.50
2019-03-20T07:43:08.311Z,102769.53
2019-03-20T07:45:32.747Z,102779.95
2019-03-20T07:48:02.870Z,102784.52
2019-03-20T07:50:33.038Z,102792.74
2019-03-20T07:53:03.820Z,102792.11
2019-03-20T07:55:33.938Z,102794.64
2019-03-20T07:58:04.221Z,102792.38
2019-03-20T08:00:34.355Z,102802.39
2019-03-20T08:03:04.607Z,102799.75
2019-03-20T08:05:34.762Z,102800.41
2019-03-20T08:08:07.551Z,102802.04
2019-03-20T08:10:37.248Z,102805.03
2019-03-20T08:13:07.440Z,102809.37
2019-03-20T08:15:38.920Z,102815.73
2019-03-20T08:18:12.188Z,102816.11
2019-03-20T08:20:42.336Z,102820.58
2019-03-20T08:23:13.855Z,102815.91
2019-03-20T08:25:46.777Z,102815.32
2019-03-20T08:28:17.126Z,102813.81
2019-03-20T08:30:47.314Z,102818.03
2019-03-20T08:33:20.464Z,102814.16
2019-03-20T08:35:53.735Z,102810.96
2019-03-20T08:38:24.438Z,102815.63
2019-03-20T08:40:54.720Z,102813.66
2019-03-20T08:43:24.885Z,102814.81
2019-03-20T08:45:55.034Z,102811.95
2019-03-20T08:48:25.269Z,102813.49
2019-03-20T08:50:55.529Z,102811.12
2019-03-20T08:53:25.731Z,102808.75
2019-03-20T08:55:55.880Z,102806.70
2019-03-20T08:58:28.752Z,102812.37
2019-03-20T09:01:01.403Z,102808.24
2019-03-20T09:03:38.852Z,102802.29
2019-03-20T09:06:09.103Z,102798.89
2019-03-20T09:08:40.349Z,102804.93
2019-03-20T09:11:10.493Z,102807.75
2019-03-20T09:13:40.745Z,102804.39
2019-03-20T09:16:10.996Z,102808.16
2019-03-20T09:18:41.222Z,102802.91
2019-03-20T09:21:11.361Z,102806.37
2019-03-20T09:23:45.611Z,102806.67
2019-03-20T09:26:18.126Z,102803.30
2019-03-20T09:28:48.294Z,102810.88
2019-03-20T09:31:18.517Z,102806.15
2019-03-20T09:33:51.188Z,102805.86
2019-03-20T09:36:21.869Z,102808.69
2019-03-20T09:38:55.025Z,102805.02
2019-03-20T09:41:25.179Z,102804.91
2019-03-20T09:43:55.519Z,102801.86
2019-03-20T09:46:25.816Z,102803.48
2019-03-20T09:48:55.949Z,102793.35
2019-03-20T09:51:26.505Z,102791.79
2019-03-20T09:53:59.607Z,102786.18
2019-03-20T09:56:29.741Z,102794.23
2019-03-20T09:58:59.848Z,102781.27
2019-03-20T10:01:29.975Z,102774.30
2019-03-20T10:04:04.875Z,102777.02
2019-03-20T10:06:37.788Z,102783.48
2019-03-20T10:09:10.818Z,102786.05
2019-03-20T10:11:41.180Z,102789.03
2019-03-20T10:14:11.384Z,102788.11
2019-03-20T10:16:41.504Z,102787.77
2019-03-20T10:19:13.303Z,102789.13
2019-03-20T10:21:43.422Z,102788.06
2019-03-20T10:24:14.107Z,102787.25
2019-03-20T10:26:44.227Z,102789.28
2019-03-20T10:29:16.019Z,102790.84
2019-03-20T10:31:46.267Z,102790.16
2019-03-20T10:34:16.619Z,102787.95
2019-03-20T10:36:46.789Z,102791.19
2019-03-20T10:39:17.017Z,102794.78
2019-03-20T10:41:47.165Z,102794.06
2019-03-20T10:44:17.328Z,102795.56
2019-03-20T10:46:47.654Z,102795.77
2019-03-20T10:49:18.618Z,102795.47
2019-03-20T10:51:48.749Z,102801.32
2019-03-20T10:54:18.886Z,102798.77
2019-03-20T10:56:49.082Z,102798.05
2019-03-20T10:59:19.238Z,102801.23
2019-03-20T11:01:49.398Z,102803.48
2019-03-20T11:04:19.624Z,102801.73
2019-03-20T11:06:49.986Z,102803.42
2019-03-20T11:09:20.352Z,102806.03
2019-03-20T11:11:50.626Z,102812.20
2019-03-20T11:14:20.951Z,102821.12
2019-03-20T11:16:51.175Z,102824.69
2019-03-20T11:19:21.424Z,102817.58
2019-03-20T11:21:51.744Z,102803.44
2019-03-20T11:24:21.965Z,102799.49
2019-03-20T11:26:52.754Z,102799.94
2019-03-20T11:29:23.054Z,102807.50
2019-03-20T11:31:53.303Z,102808.80
2019-03-20T11:34:23.726Z,102817.69
2019-03-20T11:36:54.071Z,102824.76
2019-03-20T11:39:29.514Z,102822.55
2019-03-20T11:41:56.876Z,102817.64
2019-03-20T11:44:27.077Z,102816.37
2019-03-20T11:46:58.565Z,102816.81
2019-03-20T11:49:31.501Z,102826.54
2019-03-20T11:52:06.800Z,102823.47
2019-03-20T11:54:37.048Z,102835.02
2019-03-20T11:57:08.690Z,102828.79
2019-03-20T11:59:38.920Z,102834.11
2019-03-20T12:02:09.904Z,102830.58
2019-03-20T12:04:42.188Z,102825.72
2019-03-20T12:07:12.402Z,102824.80
2019-03-20T12:09:43.744Z,102822.59
2019-03-20T12:12:14.027Z,102828.75
2019-03-20T12:14:44.252Z,102824.69
2019-03-20T12:17:14.408Z,102826.91
2019-03-20T12:19:45.253Z,102834.42
2019-03-20T12:22:15.702Z,102825.63
2019-03-20T12:24:47.588Z,102821.72
2019-03-20T12:27:18.598Z,102823.47
2019-03-20T12:29:50.695Z,102824.34
2019-03-20T12:32:21.122Z,102830.48
2019-03-20T12:34:51.319Z,102828.33
2019-03-20T12:37:21.631Z,102827.05
2019-03-20T12:39:55.282Z,102829.34
2019-03-20T12:42:25.532Z,102821.78
2019-03-20T12:44:55.963Z,102814.73
2019-03-20T12:47:27.521Z,102812.96
2019-03-20T12:49:58.036Z,102821.84
2019-03-20T12:52:28.250Z,102821.80
2019-03-20T12:54:58.765Z,102827.50
2019-03-20T12:57:29.224Z,102827.95
2019-03-20T12:59:59.451Z,102828.83
2019-03-20T13:02:29.615Z,102827.11
2019-03-20T13:04:59.893Z,102819.16
2019-03-20T13:07:30.557Z,102817.39
2019-03-20T13:10:03.555Z,102812.06
2019-03-20T13:12:35.162Z,102807.20
2019-03-20T13:15:07.852Z,102813.85
2019-03-20T13:17:41.139Z,102810.29
2019-03-20T13:20:12.125Z,102809.34
2019-03-20T13:22:42.320Z,102810.73
2019-03-20T13:25:13.445Z,102809.84
2019-03-20T13:27:43.622Z,102810.30
2019-03-20T13:30:20.430Z,102802.28
2019-03-20T13:32:48.831Z,102804.95
2019-03-20T13:35:18.998Z,102803.20
2019-03-20T13:37:51.483Z,102805.41
2019-03-20T13:40:21.807Z,102805.41
2019-03-20T13:42:52.048Z,102808.05
2019-03-20T13:45:24.459Z,102806.72
2019-03-20T13:47:54.746Z,102808.03
2019-03-20T13:50:25.099Z,102806.67
2019-03-20T13:52:55.619Z,102816.02
2019-03-20T13:55:30.157Z,102818.19
2019-03-20T13:58:00.555Z,102815.11
2019-03-20T14:00:30.740Z,102819.97
2019-03-20T14:03:02.368Z,102823.99
2019-03-20T14:05:34.599Z,102823.12
2019-03-20T14:08:05.159Z,102816.89
2019-03-20T14:10:49.420Z,102813.34
2019-03-20T14:13:07.318Z,102816.02
2019-03-20T14:15:37.702Z,102810.28
2019-03-20T14:18:07.826Z,102805.38
2019-03-20T14:20:39.524Z,102810.30
2019-03-20T14:23:10.023Z,102806.30
2019-03-20T14:25:40.345Z,102809.37
2019-03-20T14:28:13.025Z,102808.03
2019-03-20T14:30:43.281Z,102804.46
2019-03-20T14:33:13.447Z,102801.38
2019-03-20T14:35:43.698Z,102808.45
2019-03-20T14:38:13.936Z,102805.80
2019-03-20T14:40:44.341Z,102812.47
2019-03-20T14:43:14.783Z,102800.04
2019-03-20T14:45:45.123Z,102797.81
2019-03-20T14:48:15.411Z,102796.02
2019-03-20T14:50:45.710Z,102791.61
2019-03-20T14:53:17.212Z,102794.24
2019-03-20T14:55:47.500Z,102787.97
2019-03-20T14:58:17.674Z,102789.76
2019-03-20T15:00:49.196Z,102791.97
2019-03-20T15:03:19.516Z,102792.87
2019-03-20T15:05:49.685Z,102787.13
2019-03-20T15:08:20.814Z,102788.01
2019-03-20T15:11:03.191Z,102789.77
2019-03-20T15:13:38.330Z,102790.67
2019-03-20T15:16:16.193Z,102797.32
2019-03-20T15:18:48.185Z,102797.32
2019-03-20T15:21:23.210Z,102800.89
2019-03-20T15:23:59.830Z,102795.12
2019-03-20T15:26:30.451Z,102798.66
2019-03-20T15:29:03.760Z,102788.01
2019-03-20T15:31:35.077Z,102781.36
2019-03-20T15:34:08.368Z,102783.98
2019-03-20T15:36:42.044Z,102787.55
2019-03-20T15:39:12.489Z,102783.11
2019-03-20T15:41:42.838Z,102773.80
2019-03-20T15:44:20.651Z,102770.69
2019-03-20T15:46:54.025Z,102774.25
2019-03-20T15:49:32.546Z,102771.59
2019-03-20T15:52:14.551Z,102775.13
2019-03-20T15:54:48.535Z,102775.55
2019-03-20T15:57:29.375Z,102774.67
2019-03-20T16:00:09.441Z,102771.98
2019-03-20T16:02:42.671Z,102771.09
2019-03-20T16:05:20.212Z,102774.17
2019-03-20T16:07:52.348Z,102780.38
2019-03-20T16:10:27.052Z,102785.23
2019-03-20T16:13:00.918Z,102783.89
2019-03-20T16:15:38.970Z,102787.88
2019-03-20T16:18:22.692Z,102793.20
2019-03-20T16:21:04.186Z,102797.19
2019-03-20T16:24:25.848Z,102798.92
2019-03-20T16:27:05.537Z,102794.02
2019-03-20T16:29:39.428Z,102798.37
2019-03-20T16:32:11.334Z,102793.97
2019-03-20T16:34:41.908Z,102792.19
2019-03-20T16:37:12.362Z,102796.63
2019-03-20T16:39:47.296Z,102792.65
2019-03-20T16:42:18.403Z,102801.08
2019-03-20T16:44:50.000Z,102796.64
2019-03-20T16:47:22.206Z,102798.36
2019-03-20T16:49:52.440Z,102799.69
2019-03-20T16:52:23.749Z,102795.23
2019-03-20T16:55:06.846Z,102790.78
2019-03-20T16:57:40.358Z,102798.75
2019-03-20T17:00:20.849Z,102795.22
2019-03-20T17:02:52.460Z,102800.06
2019-03-20T17:05:29.353Z,102808.05
2019-03-20T17:08:06.710Z,102804.45
2019-03-20T17:10:46.373Z,102809.36
2019-03-20T17:13:20.685Z,102813.30
2019-03-20T17:16:16.588Z,102806.23
2019-03-20T17:18:47.690Z,102804.86
2019-03-20T17:21:17.926Z,102806.64
2019-03-20T17:23:48.221Z,102805.72
2019-03-20T17:26:20.204Z,102809.70
2019-03-20T17:28:51.611Z,102807.89
2019-03-20T17:31:21.850Z,102812.75
2019-03-20T17:33:52.211Z,102808.35
2019-03-20T17:36:22.935Z,102800.80
2019-03-20T17:38:53.483Z,102802.58
2019-03-20T17:41:23.683Z,102809.61
2019-03-20T17:43:53.949Z,102807.81
2019-03-20T17:46:27.584Z,102804.68
2019-03-20T17:48:57.771Z,102805.98
2019-03-20T17:51:27.985Z,102811.23
2019-03-20T17:53:58.335Z,102818.69
2019-03-20T17:56:28.987Z,102814.98
2019-03-20T17:58:59.276Z,102813.61
2019-03-20T18:01:32.577Z,102821.11
2019-03-20T18:04:02.713Z,102826.82
2019-03-20T18:06:34.061Z,102832.12
2019-03-20T18:09:05.824Z,102822.84
2019-03-20T18:11:47.104Z,102829.08
2019-03-20T18:14:13.235Z,102837.41
2019-03-20T18:16:43.947Z,102838.23
2019-03-20T18:19:14.715Z,102843.59
2019-03-20T18:21:44.978Z,102851.05
2019-03-20T18:24:16.400Z,102852.82
2019-03-20T18:26:49.064Z,102855.47
2019-03-20T18:29:19.372Z,102858.53
2019-03-20T18:31:53.686Z,102857.61
2019-03-20T18:34:24.853Z,102866.00
2019-03-20T18:36:56.595Z,102862.02
2019-03-20T18:39:26.824Z,102857.53
2019-03-20T18:41:58.068Z,102869.93
2019-03-20T18:44:34.058Z,102864.61
2019-03-20T18:47:04.203Z,102869.41
2019-03-20T18:49:34.472Z,102872.05
2019-03-20T18:52:04.778Z,102871.59
2019-03-20T18:54:38.039Z,102868.84
2019-03-20T18:57:08.278Z,102873.77
2019-03-20T18:59:42.786Z,102876.72
2019-03-20T19:02:13.152Z,102870.55
2019-03-20T19:04:49.357Z,102874.07
2019-03-20T19:07:24.494Z,102871.77
2019-03-20T19:09:55.099Z,102873.59
2019-03-20T19:12:36.780Z,102877.41
2019-03-20T19:15:12.221Z,102876.09
2019-03-20T19:17:42.540Z,102874.27
2019-03-20T19:20:15.393Z,102874.19
2019-03-20T19:22:49.663Z,102874.86
2019-03-20T19:25:19.908Z,102878.66
2019-03-20T19:27:52.684Z,102880.88
2019-03-20T19:30:22.932Z,102881.37
2019-03-20T19:32:53.091Z,102880.81
2019-03-20T19:35:23.354Z,102889.58
2019-03-20T19:37:53.493Z,102886.05
2019-03-20T19:40:23.764Z,102889.95
2019-03-20T19:42:58.937Z,102892.27
2019-03-20T19:45:31.616Z,102890.12
2019-03-20T19:48:01.822Z,102896.06
2019-03-20T19:50:32.184Z,102893.92
2019-03-20T19:53:02.475Z,102896.57
2019-03-20T19:55:37.426Z,102897.47
2019-03-20T19:58:07.712Z,102898.43
2019-03-20T20:00:38.039Z,102898.03
2019-03-20T20:03:08.161Z,102896.70
2019-03-20T20:05:39.550Z,102901.44
2019-03-20T20:08:09.816Z,102899.29
2019-03-20T20:10:39.998Z,102900.70
2019-03-20T20:13:12.005Z,102902.88
2019-03-20T20:15:42.363Z,102901.08
2019-03-20T20:18:13.543Z,102898.89
2019-03-20T20:20:43.746Z,102895.31
2019-03-20T20:23:14.028Z,102901.08
2019-03-20T20:25:44.298Z,102906.84
2019-03-20T20:28:14.700Z,102905.05
2019-03-20T20:30:44.938Z,102904.66
2019-03-20T20:33:15.089Z,102901.20
2019-03-20T20:35:45.479Z,102909.06
2019-03-20T20:38:15.644Z,102908.73
2019-03-20T20:40:54.990Z,102909.14
2019-03-20T20:43:25.176Z,102912.17
2019-03-20T20:45:55.499Z,102904.70
2019-03-20T20:48:25.840Z,102906.48
2019-03-20T20:50:58.600Z,102914.39
2019-03-20T20:53:28.898Z,102914.94
2019-03-20T20:56:00.972Z,102914.01
2019-03-20T20:58:31.195Z,102914.87
2019-03-20T21:01:01.823Z,102916.22
2019-03-20T21:03:32.087Z,102915.30
2019-03-20T21:06:04.652Z,102916.62
2019-03-20T21:08:37.962Z,102909.55
2019-03-20T21:11:08.264Z,102913.52
2019-03-20T21:13:38.389Z,102912.55
2019-03-20T21:16:09.614Z,102911.79
2019-03-20T21:19:29.812Z,102914.47
2019-03-20T21:22:39.714Z,102919.28
2019-03-20T21:25:10.415Z,102923.33
2019-03-20T21:28:34.354Z,102921.48
2019-03-20T21:31:19.979Z,102923.29
2019-03-20T21:34:32.908Z,102927.27
2019-03-20T21:38:02.286Z,102927.27
2019-03-20T21:41:04.277Z,102924.25
2019-03-20T21:44:14.028Z,102925.91
2019-03-20T21:47:18.799Z,102926.41
2019-03-20T21:49:49.576Z,102921.58
2019-03-20T21:52:20.670Z,102929.58
2019-03-20T21:55:41.322Z,102929.20
2019-03-20T21:58:33.182Z,102924.23
2019-03-20T22:01:58.692Z,102927.70
2019-03-20T22:04:31.348Z,102925.94
2019-03-20T22:07:06.317Z,102924.29
2019-03-20T22:10:14.738Z,102924.23
2019-03-20T22:13:17.827Z,102928.23
2019-03-20T22:16:19.976Z,102920.67
2019-03-20T22:19:29.249Z,102925.05
2019-03-20T22:22:45.818Z,102922.79
2019-03-20T22:25:53.472Z,102931.56
2019-03-20T22:28:55.796Z,102923.25
2019-03-20T22:31:27.216Z,102923.22
2019-03-20T22:34:33.470Z,102928.09
2019-03-20T22:37:07.229Z,102933.86
2019-03-20T22:40:36.510Z,102930.26
2019-03-20T22:43:38.932Z,102932.93
2019-03-20T22:47:11.379Z,102943.64
2019-03-20T22:50:05.395Z,102941.04
2019-03-20T22:53:11.141Z,102944.60
2019-03-20T22:56:09.091Z,102941.47
2019-03-20T22:58:47.013Z,102938.87
2019-03-20T23:01:33.928Z,102942.83
2019-03-20T23:04:12.218Z,102934.86
2019-03-20T23:06:43.003Z,102931.74
2019-03-20T23:09:13.750Z,102940.23
2019-03-20T23:11:44.553Z,102947.46
2019-03-20T23:14:15.280Z,102942.98
2019-03-20T23:16:46.345Z,102949.48
2019-03-20T23:19:17.267Z,102942.88
2019-03-20T23:21:48.042Z,102946.36
2019-03-20T23:24:21.160Z,102950.25
2019-03-20T23:26:51.975Z,102956.06
2019-03-20T23:29:22.808Z,102957.81
2019-03-20T23:31:56.911Z,102961.86
2019-03-20T23:34:28.165Z,102961.42
2019-03-20T23:36:58.943Z,102959.70
2019-03-20T23:39:30.458Z,102960.22
2019-03-20T23:42:01.376Z,102958.80
2019-03-20T23:44:32.065Z,102961.87
2019-03-20T23:47:24.401Z,102957.03
2019-03-20T23:49:55.429Z,102956.11
2019-03-20T23:52:26.324Z,102955.75
2019-03-20T23:54:58.381Z,102956.61
2019-03-20T23:57:29.758Z,102962.08
